Latest Weather Observations for Camooweal

IDD60801

Issued at 4:01 pm CST Thursday 26 May 2016 (issued every 30 minutes, with the page automatically refreshed every 10 minutes)

About weather observations | Map of weather stations | Latest weather observations for NT | Other Formats
Station Details ID: 037010 Name: CAMOOWEAL TOWNSHIP Lat: -19.92 Lon: 138.12 Height: 231.2 m
Data from the previous 72 hours. | See also: Recent months at Camooweal
Date/Time
CST
Temp
°C
App
Temp
°C
Dew
Point
Rel
Hum
%
Delta-T
°C
Wind Press
QNH
hPa
Press
MSL
hPa
Rain
since 9 am
mm
Dir
 
Spd
km/h
Gust
km/h
Spd
kts
Gust
kts
26/04:00pm 33.1 32.7 14.2 32 11.7 E 9 13 5 7 1012.0 1011.1 0.0
26/03:30pm 33.6 33.6 14.1 30 12.0 E 7 11 4 6 1012.0 1011.1 0.0
26/03:00pm 33.6 34.3 15.6 34 11.3 SE 6 11 3 6 1012.1 1011.2 0.0
26/02:30pm 33.8 34.5 16.2 35 11.2 E 7 11 4 6 1012.3 1011.4 0.0
26/02:00pm 32.0 32.3 14.6 34 10.8 NW 6 11 3 6 1012.6 1011.7 0.0
26/01:30pm 33.2 33.9 16.1 35 10.8 NNE 7 19 4 10 1013.2 1012.4 0.0
26/01:00pm 33.0 34.0 16.8 38 10.4 NE 7 11 4 6 1013.7 1012.9 0.0
26/12:30pm 32.1 32.7 16.8 40 9.8 NNW 9 15 5 8 1014.3 1013.5 0.0
26/12:00pm 31.4 32.2 17.3 43 9.0 N 9 15 5 8 1014.8 1014.0 0.0
26/11:30am 31.1 32.6 18.1 46 8.4 NNE 7 13 4 7 1015.4 1014.5 0.0
26/11:00am 30.6 32.7 19.0 50 7.6 NNE 6 9 3 5 1015.9 1015.0 0.0
26/10:30am 29.5 32.4 19.8 56 6.4 NNE 4 9 2 5 1016.3 1015.4 0.0
26/10:00am 28.1 30.5 19.6 60 5.6 NW 6 9 3 5 1016.7 1015.8 0.0
26/09:30am 27.9 31.2 19.9 61 5.3 NNW 2 9 1 5 1016.8 1015.9 0.0
26/09:00am 26.4 29.7 20.0 68 4.2 NW 2 7 1 4 1016.6 1015.7 0.0
26/08:30am 24.4 27.3 19.9 76 2.9 WNW 4 7 2 4 1016.4 1015.5 -
26/08:00am 22.9 26.2 19.9 83 1.9 N 2 7 1 4 1016.0 1015.1 -
26/07:30am 20.7 22.8 19.0 90 1.1 NE 6 7 3 4 1015.8 1014.9 -
26/07:00am 19.4 22.4 18.4 94 0.6 CALM 0 0 0 0 1015.6 1014.7 -
26/06:30am 19.2 22.1 18.2 94 0.6 CALM 0 0 0 0 1015.2 1014.3 -
26/06:00am 18.7 20.6 17.7 94 0.6 SSW 4 9 2 5 1014.9 1014.1 -
26/05:30am 19.5 22.1 17.5 88 1.2 CALM 0 0 0 0 1014.5 1013.7 -
26/05:00am 20.3 22.4 18.1 87 1.4 N 4 7 2 4 1014.4 1013.6 -
26/04:30am 20.5 22.2 18.6 89 1.2 NNE 7 11 4 6 1014.2 1013.4 -
26/04:00am 20.1 23.0 18.1 88 1.2 CALM 0 0 0 0 1014.1 1013.3 -
26/03:30am 20.1 22.9 17.9 87 1.4 CALM 0 0 0 0 1014.1 1013.3 -
26/03:00am 21.1 23.7 18.5 85 1.6 NNW 2 7 1 4 1014.2 1013.4 -
26/02:30am 20.9 23.7 17.9 83 1.9 CALM 0 0 0 0 1014.2 1013.4 0.0
26/02:00am 22.5 24.0 18.9 80 2.3 NNE 9 11 5 6 1014.2 1013.4 -
26/01:30am 21.5 24.5 18.5 83 1.9 CALM 0 0 0 0 1014.5 1013.7 -
26/01:00am 21.7 24.5 17.9 79 2.4 CALM 0 0 0 0 1014.6 1013.8 -
26/12:30am 22.3 25.3 18.5 79 2.4 CALM 0 6 0 3 1014.8 1014.0 -
26/12:00am 23.5 25.2 18.6 74 3.1 N 7 9 4 5 1015.0 1014.2 -
 
Date/Time
CST
Temp
°C
App
Temp
°C
Dew
Point
Rel
Hum
%
Delta-T
°C
Wind Press
QNH
hPa
Press
MSL
hPa
Rain
since 9 am
mm
Dir
 
Spd
km/h
Gust
km/h
Spd
kts
Gust
kts
25/11:30pm 23.1 25.8 18.6 76 2.9 N 2 9 1 5 1015.0 1014.2 -
25/11:00pm 23.3 25.1 18.4 74 3.1 NNE 6 7 3 4 1015.0 1014.2 -
25/10:30pm 23.1 26.2 18.6 76 2.9 CALM 0 0 0 0 1015.0 1014.2 -
25/10:00pm 23.0 25.9 18.1 74 3.1 CALM 0 0 0 0 1015.2 1014.3 -
25/09:30pm 23.9 27.1 18.8 73 3.3 CALM 0 0 0 0 1015.2 1014.3 -
25/09:00pm 23.8 26.9 18.7 73 3.3 CALM 0 0 0 0 1014.9 1014.1 -
25/08:30pm 24.2 27.2 18.4 70 3.7 CALM 0 0 0 0 1014.7 1013.9 0.0
25/08:00pm 24.6 27.5 18.3 68 4.0 CALM 0 0 0 0 1014.4 1013.6 -
25/07:30pm 24.7 27.3 17.4 64 4.6 CALM 0 0 0 0 1014.2 1013.4 -
25/07:00pm 26.4 27.9 17.7 58 5.5 N 6 6 3 3 1013.7 1012.9 -
25/06:30pm 27.2 28.8 17.9 56 5.9 NNW 6 7 3 4 1013.3 1012.5 -
25/06:00pm 27.9 29.6 18.0 55 6.3 NNW 6 7 3 4 1013.0 1012.1 -
25/05:30pm 29.0 30.1 18.1 51 7.0 N 9 11 5 6 1012.7 1011.8 -
25/05:00pm 29.9 31.5 18.3 49 7.5 NNW 7 11 4 6 1012.3 1011.4 -
25/04:30pm 30.2 31.0 17.3 46 8.2 NNW 9 17 5 9 1012.2 1011.3 -
25/04:00pm 30.6 31.0 17.3 45 8.5 NNE 11 17 6 9 1012.1 1011.2 -
25/03:30pm 31.1 31.4 17.8 45 8.6 NNE 13 20 7 11 1012.2 1011.3 -
25/03:00pm 30.4 31.0 17.8 46 8.1 NNE 11 20 6 11 1012.3 1011.4 -
25/02:30pm 31.5 32.6 18.1 44 8.7 NE 9 19 5 10 1012.4 1011.5 -
25/02:00pm 31.0 32.7 18.4 47 8.2 NE 7 15 4 8 1012.8 1011.9 -
25/01:30pm 29.9 31.6 18.0 48 7.7 NE 6 15 3 8 1013.4 1012.6 -
25/01:00pm 29.2 29.8 17.7 50 7.4 NNE 11 20 6 11 1014.0 1013.2 -
25/12:30pm 28.6 28.9 17.8 52 6.9 NE 13 15 7 8 1014.4 1013.6 -
25/12:00pm 28.6 30.2 17.8 52 6.9 NNE 6 20 3 11 1015.0 1014.2 -
25/11:30am 27.7 - 17.3 53 6.6 - - - - - 1015.7 1014.8 -
25/09:00am 23.4 25.6 18.3 73 3.2 SSE 4 9 2 5 1016.4 1015.5 0.0
25/08:30am 22.7 24.7 18.7 78 2.5 SSE 6 11 3 6 1016.2 1015.3 1.0
25/08:00am 21.9 24.0 18.9 83 1.9 SSE 6 11 3 6 1016.1 1015.2 1.0
25/07:30am 21.2 24.5 19.1 88 1.3 CALM 0 0 0 0 1015.8 1014.9 1.0
25/07:00am 20.7 24.0 19.0 90 1.1 CALM 0 6 0 3 1015.6 1014.7 1.0
25/06:30am 20.3 22.2 19.0 92 0.8 SSE 7 9 4 5 1015.4 1014.5 1.0
25/06:00am 20.0 22.1 19.0 94 0.6 SSE 6 9 3 5 1015.0 1014.2 1.0
25/05:30am 19.4 22.4 18.4 94 0.6 CALM 0 0 0 0 1014.9 1014.1 1.0
25/05:00am 19.6 22.1 18.1 91 0.9 SSE 2 7 1 4 1014.6 1013.8 1.0
25/04:30am 20.4 22.0 19.1 92 0.8 SE 9 13 5 7 1014.5 1013.7 1.0
25/04:00am 19.3 22.5 18.8 97 0.3 CALM 0 2 0 1 1014.8 1014.0 1.0
25/03:30am 18.7 21.6 18.2 97 0.3 CALM 0 0 0 0 1014.8 1014.0 1.0
25/03:00am 18.8 21.8 18.5 98 0.2 CALM 0 0 0 0 1015.2 1014.3 1.0
25/02:30am 18.8 21.7 18.3 97 0.3 CALM 0 0 0 0 1015.3 1014.4 1.0
25/02:00am 19.3 22.5 18.8 97 0.3 CALM 0 0 0 0 1015.5 1014.6 1.0
25/01:30am 19.4 22.5 18.7 96 0.4 CALM 0 0 0 0 1015.7 1014.8 1.0
25/01:00am 19.6 22.7 18.6 94 0.6 CALM 0 0 0 0 1016.1 1015.2 1.0
25/12:30am 20.3 23.6 19.1 93 0.8 CALM 0 0 0 0 1016.2 1015.3 1.0
25/12:00am 20.6 24.0 19.4 93 0.8 CALM 0 0 0 0 1016.3 1015.4 1.0
 
Date/Time
CST
Temp
°C
App
Temp
°C
Dew
Point
Rel
Hum
%
Delta-T
°C
Wind Press
QNH
hPa
Press
MSL
hPa
Rain
since 9 am
mm
Dir
 
Spd
km/h
Gust
km/h
Spd
kts
Gust
kts
24/11:30pm 20.8 24.3 19.6 93 0.8 CALM 0 0 0 0 1016.3 1015.4 1.0
24/11:00pm 20.6 24.0 19.3 92 0.8 CALM 0 0 0 0 1016.5 1015.6 1.0
24/10:30pm 20.7 24.0 19.2 91 1.0 CALM 0 0 0 0 1016.6 1015.7 1.0
24/10:00pm 21.0 24.3 19.1 89 1.2 CALM 0 0 0 0 1016.7 1015.8 1.0
24/09:30pm 21.4 24.7 19.1 87 1.5 CALM 0 0 0 0 1016.7 1015.8 1.0
24/09:00pm 22.0 24.0 19.2 84 1.8 SE 7 11 4 6 1016.7 1015.8 1.0
24/08:30pm 22.9 24.7 19.5 81 2.2 SSE 9 17 5 9 1016.6 1015.7 1.0
24/08:00pm 23.3 24.7 19.5 79 2.5 SE 11 17 6 9 1016.4 1015.5 1.0
24/07:30pm 23.7 26.2 19.8 79 2.5 SSE 6 15 3 8 1016.1 1015.2 1.0
24/07:00pm 23.8 27.5 19.9 79 2.5 CALM 0 7 0 4 1015.7 1014.8 1.0
24/06:30pm 24.0 25.9 19.7 77 2.8 SE 9 13 5 7 1015.5 1014.6 1.0
24/06:00pm 24.6 25.9 19.2 72 3.5 SE 11 17 6 9 1015.4 1014.5 1.0
24/05:30pm 25.2 26.1 19.3 70 3.8 SSE 13 19 7 10 1015.0 1014.2 1.0
24/05:00pm 26.1 29.0 19.0 65 4.6 E 2 13 1 7 1014.7 1013.9 1.0
24/04:30pm 26.4 29.9 19.5 66 4.5 CALM 0 0 0 0 1014.6 1013.8 1.0
24/04:00pm 25.9 28.6 19.5 68 4.2 SSW 4 7 2 4 1014.8 1014.0 1.0
24/03:30pm 25.7 29.2 19.6 69 4.0 CALM 0 7 0 4 1014.9 1014.1 1.0
24/03:00pm 25.2 27.5 19.8 72 3.5 SW 7 11 4 6 1015.0 1014.2 1.0
24/02:30pm 24.4 26.3 19.7 75 3.1 SSE 9 17 5 9 1015.0 1014.2 0.8
24/02:00pm 23.7 26.1 20.8 84 1.9 S 9 13 5 7 1015.2 1014.3 0.8
24/01:30pm 22.7 23.5 19.9 84 1.8 SSE 15 20 8 11 1015.8 1014.9 0.8
24/01:00pm 23.3 25.2 19.7 80 2.3 ESE 9 13 5 7 1016.3 1015.4 0.8
24/12:30pm 25.0 26.8 18.7 68 4.0 ENE 7 15 4 8 1016.5 1015.6 0.8
24/12:00pm 25.4 27.3 18.6 66 4.4 ESE 6 17 3 9 1016.6 1015.7 0.8
24/11:30am 24.8 25.6 19.0 70 3.7 SE 13 20 7 11 1016.7 1015.8 0.8
24/11:00am 23.7 25.4 20.2 81 2.3 SE 11 19 6 10 1017.3 1016.5 0.8
24/10:30am 21.8 21.8 19.0 84 1.8 SE 17 26 9 14 1017.8 1017.0 0.8
24/10:00am 21.1 22.2 19.7 92 0.9 SSE 13 20 7 11 1018.2 1017.4 0.8
24/09:30am 20.0 22.2 19.5 97 0.3 SE 7 13 4 7 1018.6 1017.8 0.2
24/09:00am 19.9 22.0 19.4 97 0.3 SSE 7 11 4 6 1018.6 1017.8 0.2
24/08:30am 19.9 21.1 19.1 95 0.5 SSE 11 17 6 9 1018.2 1017.4 0.8
24/08:00am 19.9 20.7 19.1 95 0.5 SSE 13 17 7 9 1018.0 1017.2 0.8
24/07:30am 19.9 21.0 18.9 94 0.6 SE 11 15 6 8 1017.6 1016.8 0.6
24/07:00am 20.0 21.4 18.7 92 0.8 SE 9 15 5 8 1017.3 1016.5 0.6
24/06:30am 19.9 20.9 18.7 93 0.8 SE 11 15 6 8 1017.0 1016.2 0.6
24/06:00am 19.7 20.3 18.7 94 0.6 SSE 13 20 7 11 1016.9 1016.1 0.6
24/05:30am 19.7 19.6 18.7 94 0.6 SSE 17 20 9 11 1016.8 1015.9 0.6
24/05:00am 19.9 20.2 18.7 93 0.8 SSE 15 19 8 10 1016.7 1015.8 0.6
24/04:30am 20.2 20.5 18.7 91 0.9 SSE 15 20 8 11 1016.6 1015.7 0.6
24/04:00am 20.4 21.0 18.7 90 1.1 SSE 13 20 7 11 1016.5 1015.6 0.6
24/03:30am 20.7 21.4 18.8 89 1.2 SE 13 20 7 11 1016.5 1015.6 0.6
24/03:00am 20.4 23.7 19.1 92 0.8 CALM 0 0 0 0 1016.7 1015.8 0.6
24/02:30am 20.6 22.6 18.7 89 1.2 SE 6 11 3 6 1016.8 1015.9 0.6
24/02:00am 20.8 22.1 18.4 86 1.5 ESE 9 17 5 9 1016.9 1016.1 0.6
24/01:30am 21.4 21.1 18.2 82 2.0 ESE 17 22 9 12 1017.2 1016.4 0.6
24/01:00am 21.2 22.2 18.6 85 1.6 SE 11 15 6 8 1017.5 1016.7 0.6
24/12:30am 21.3 22.3 18.7 85 1.6 SE 11 17 6 9 1017.2 1016.4 0.6
24/12:00am 21.4 22.9 19.0 86 1.5 SE 9 15 5 8 1017.1 1016.3 0.6
 
Date/Time
CST
Temp
°C
App
Temp
°C
Dew
Point
Rel
Hum
%
Delta-T
°C
Wind Press
QNH
hPa
Press
MSL
hPa
Rain
since 9 am
mm
Dir
 
Spd
km/h
Gust
km/h
Spd
kts
Gust
kts
23/11:30pm 21.5 22.2 18.9 85 1.7 ESE 13 17 7 9 1017.2 1016.4 0.6
23/11:00pm 21.5 21.2 19.2 87 1.5 E 19 22 10 12 1017.4 1016.6 0.6
23/10:30pm 21.5 21.0 19.1 86 1.5 E 20 30 11 16 1017.7 1016.9 0.6
23/10:00pm 21.7 21.3 19.3 86 1.5 E 20 28 11 15 1017.8 1017.0 0.6
23/09:30pm 21.7 20.6 19.4 87 1.5 E 24 32 13 17 1017.8 1017.0 0.6
23/09:00pm 21.8 21.4 19.4 86 1.5 E 20 28 11 15 1017.7 1016.9 0.6
23/08:30pm 22.0 21.7 19.5 86 1.6 E 20 28 11 15 1017.3 1016.5 0.6
23/08:00pm 21.8 22.1 19.7 88 1.4 E 17 28 9 15 1017.0 1016.2 0.6
23/07:30pm 21.2 21.9 19.7 91 1.0 ESE 15 20 8 11 1017.2 1016.4 0.6
23/07:00pm 21.0 20.6 20.2 95 0.5 ESE 22 35 12 19 1017.1 1016.3 0.6
23/06:30pm 22.8 23.4 21.1 90 1.1 E 19 26 10 14 1016.6 1015.7 0.2
23/06:00pm 21.9 20.2 19.8 88 1.4 ESE 28 39 15 21 1016.3 1015.4 0.0
23/05:30pm 24.6 24.7 19.9 75 3.1 ESE 19 30 10 16 1015.8 1014.9 0.0
23/05:00pm 25.7 23.4 19.3 67 4.2 ESE 30 43 16 23 1015.4 1014.5 0.0
23/04:30pm 27.7 25.9 18.7 58 5.8 ESE 26 33 14 18 1014.6 1013.8 0.0
23/04:00pm 28.7 27.7 17.9 52 6.9 ESE 20 28 11 15 1014.2 1013.4 0.0

Other Formats:

Comma delimited format used in spreadsheet applications
http://www.bom.gov.au/fwo/IDD60801/IDD60801.94255.axf

JavaScript Object Notation format (JSON) in row-major order
http://www.bom.gov.au/fwo/IDD60801/IDD60801.94255.json